Terminal Aerodrome Forecast
Issued by NWS

Home | Current Version | Previous Version | Text Only | Print | Product List | Glossary On
Versions: 1 2 3 4 5 6 7 8 9 10 11 12 13 14 15 16 17 18 19 20 21 22 23 24 25 26 27 28 29 30 31
000
FTUS45 KBOI 301723
TAFMYL
TAF
KMYL 301723Z 3018/3118 18012G22KT 1SM -SHSN BKN004 OVC015
      TEMPO 3018/3022 4SM -SHRASN BKN015 OVC025
     FM302200 17015G25KT P6SM VCSH SCT015 BKN035
     FM310200 19008KT 1/2SM -SHSN FG OVC008
     FM310900 VRB05KT 1/2SM FG VCSH BKN004 OVC015=

USA.gov is the U.S. government's official web portal to all federal, state and local government web resources and services.